createdAt,value
2018-03-31T00:02:24.748Z,9.70
2018-03-31T00:04:51.331Z,9.90
2018-03-31T00:07:18.225Z,9.90
2018-03-31T00:09:46.160Z,10.00
2018-03-31T00:14:50.847Z,12.50
2018-03-31T00:17:17.449Z,10.10
2018-03-31T00:19:44.053Z,10.00
2018-03-31T00:22:10.707Z,10.00
2018-03-31T00:24:37.288Z,10.10
2018-03-31T00:27:04.871Z,9.90
2018-03-31T00:29:32.537Z,9.80
2018-03-31T00:34:26.889Z,9.70
2018-03-31T00:36:53.522Z,9.50
2018-03-31T00:39:20.381Z,9.60
2018-03-31T00:41:47.924Z,9.40
2018-03-31T00:44:15.037Z,9.50
2018-03-31T00:46:42.435Z,9.60
2018-03-31T00:49:09.016Z,9.60
2018-03-31T00:51:36.661Z,9.60
2018-03-31T00:54:03.235Z,9.70
2018-03-31T00:56:29.832Z,9.70
2018-03-31T00:58:56.468Z,9.60
2018-03-31T01:03:49.955Z,9.60
2018-03-31T01:06:16.594Z,9.60
2018-03-31T01:08:43.160Z,9.50
2018-03-31T01:11:09.728Z,9.50
2018-03-31T01:13:37.194Z,9.60
2018-03-31T01:16:03.798Z,9.50
2018-03-31T01:18:30.392Z,9.50
2018-03-31T01:20:57.041Z,9.50
2018-03-31T01:23:23.606Z,9.40
2018-03-31T01:25:50.194Z,9.50
2018-03-31T01:30:45.258Z,9.40
2018-03-31T01:33:12.275Z,9.50
2018-03-31T01:35:39.852Z,9.60
2018-03-31T01:40:46.508Z,11.10
2018-03-31T01:43:14.066Z,9.20
2018-03-31T01:45:40.655Z,9.20
2018-03-31T01:48:07.277Z,9.10
2018-03-31T01:50:33.872Z,8.80
2018-03-31T01:53:01.594Z,8.90
2018-03-31T01:55:28.228Z,8.60
2018-03-31T01:57:54.815Z,8.50
2018-03-31T02:00:21.374Z,8.40
2018-03-31T02:02:48.063Z,8.20
2018-03-31T02:05:14.632Z,8.30
2018-03-31T02:07:41.581Z,8.40
2018-03-31T02:10:09.027Z,8.40
2018-03-31T02:12:35.603Z,8.30
2018-03-31T02:15:03.086Z,8.20
2018-03-31T02:17:30.578Z,8.30
2018-03-31T02:19:58.180Z,8.20
2018-03-31T02:22:24.751Z,8.20
2018-03-31T02:24:52.357Z,8.20
2018-03-31T02:27:18.954Z,8.30
2018-03-31T02:29:45.531Z,8.30
2018-03-31T02:32:12.190Z,8.30
2018-03-31T02:34:38.785Z,8.20
2018-03-31T02:37:05.353Z,8.30
2018-03-31T02:39:31.973Z,8.50
2018-03-31T02:41:59.415Z,7.90
2018-03-31T02:44:25.980Z,8.20
2018-03-31T02:46:52.610Z,8.30
2018-03-31T02:49:19.221Z,8.30
2018-03-31T02:51:45.812Z,8.40
2018-03-31T02:54:12.471Z,8.50
2018-03-31T02:56:39.099Z,8.60
2018-03-31T02:59:05.724Z,8.60
2018-03-31T03:01:33.192Z,8.70
2018-03-31T03:06:39.041Z,8.50
2018-03-31T03:09:05.626Z,8.70
2018-03-31T03:11:32.653Z,8.70
2018-03-31T03:13:59.926Z,8.70
2018-03-31T03:16:27.468Z,8.80
2018-03-31T03:18:54.036Z,8.70
2018-03-31T03:21:20.659Z,8.70
2018-03-31T03:23:47.505Z,8.70
2018-03-31T03:26:15.036Z,8.70
2018-03-31T03:28:41.694Z,8.70
2018-03-31T03:31:08.255Z,8.50
2018-03-31T03:33:34.847Z,8.50
2018-03-31T03:38:30.386Z,8.30
2018-03-31T03:40:55.086Z,8.50
2018-03-31T03:43:21.717Z,8.40
2018-03-31T03:45:48.311Z,8.20
2018-03-31T03:48:14.922Z,8.20
2018-03-31T03:50:41.567Z,8.20
2018-03-31T03:53:08.136Z,8.30
2018-03-31T03:55:34.735Z,8.30
2018-03-31T03:58:04.133Z,8.40
2018-03-31T04:00:28.745Z,8.50
2018-03-31T04:02:55.339Z,8.50
2018-03-31T04:05:21.996Z,8.30
2018-03-31T04:07:48.596Z,8.30
2018-03-31T04:10:15.180Z,8.40
2018-03-31T04:12:41.836Z,8.40
2018-03-31T04:15:09.291Z,8.60
2018-03-31T04:17:35.922Z,8.70
2018-03-31T04:20:02.569Z,8.80
2018-03-31T04:22:29.148Z,8.70
2018-03-31T04:24:55.728Z,8.60
2018-03-31T04:30:00.372Z,10.20
2018-03-31T04:32:28.000Z,8.30
2018-03-31T04:34:54.562Z,8.10
2018-03-31T04:37:22.621Z,8.20
2018-03-31T04:39:50.160Z,8.00
2018-03-31T04:42:16.753Z,7.70
2018-03-31T04:44:43.329Z,7.70
2018-03-31T04:47:10.816Z,7.50
2018-03-31T04:49:38.363Z,7.50
2018-03-31T04:52:04.960Z,7.30
2018-03-31T04:54:31.589Z,7.40
2018-03-31T04:56:58.162Z,7.20
2018-03-31T04:59:24.724Z,7.20
2018-03-31T05:01:51.372Z,7.10
2018-03-31T05:04:17.956Z,6.90
2018-03-31T05:06:44.938Z,6.70
2018-03-31T05:09:11.589Z,6.80
2018-03-31T05:11:38.165Z,6.80
2018-03-31T05:14:04.742Z,6.90
2018-03-31T05:16:32.270Z,6.80
2018-03-31T05:18:58.869Z,6.90
2018-03-31T05:21:25.467Z,7.10
2018-03-31T05:23:53.064Z,7.10
2018-03-31T05:26:20.531Z,7.20
2018-03-31T05:28:47.497Z,7.20
2018-03-31T05:31:15.025Z,7.20
2018-03-31T05:33:41.635Z,7.20
2018-03-31T05:36:09.070Z,7.20
2018-03-31T05:38:35.713Z,7.10
2018-03-31T05:41:02.315Z,7.00
2018-03-31T05:43:29.711Z,7.10
2018-03-31T05:45:57.276Z,7.20
2018-03-31T05:48:23.843Z,7.10
2018-03-31T05:50:50.435Z,7.20
2018-03-31T05:55:57.140Z,7.30
2018-03-31T05:58:23.825Z,7.50
2018-03-31T06:00:51.269Z,7.60
2018-03-31T06:03:18.796Z,7.60
2018-03-31T06:05:45.439Z,7.60
2018-03-31T06:08:12.048Z,7.20
2018-03-31T06:10:39.087Z,7.10
2018-03-31T06:15:34.322Z,6.90
2018-03-31T06:18:00.890Z,6.80
2018-03-31T06:20:27.552Z,6.90
2018-03-31T06:22:54.404Z,6.90
2018-03-31T06:25:20.988Z,6.80
2018-03-31T06:27:48.480Z,6.80
2018-03-31T06:30:16.288Z,6.70
2018-03-31T06:32:42.906Z,6.70
2018-03-31T06:35:10.506Z,6.70
2018-03-31T06:37:38.025Z,6.70
2018-03-31T06:42:31.616Z,6.80
2018-03-31T06:44:58.970Z,6.70
2018-03-31T06:47:25.589Z,6.80
2018-03-31T06:49:52.207Z,6.60
2018-03-31T06:52:18.773Z,6.60
2018-03-31T06:54:45.416Z,6.60
2018-03-31T06:57:12.311Z,6.60
2018-03-31T06:59:38.900Z,6.60
2018-03-31T07:02:05.462Z,6.60
2018-03-31T07:04:32.100Z,6.60
2018-03-31T07:06:59.676Z,6.60
2018-03-31T07:09:26.250Z,6.50
2018-03-31T07:11:52.911Z,6.50
2018-03-31T07:14:19.491Z,6.50
2018-03-31T07:16:46.881Z,6.50
2018-03-31T07:19:13.560Z,6.50
2018-03-31T07:24:20.278Z,7.70
2018-03-31T07:26:46.891Z,6.60
2018-03-31T07:29:13.467Z,6.60
2018-03-31T07:31:40.091Z,6.70
2018-03-31T07:34:07.524Z,6.60
2018-03-31T07:36:34.345Z,6.70
2018-03-31T07:39:00.984Z,6.60
2018-03-31T07:41:27.583Z,6.70
2018-03-31T07:46:22.666Z,6.60
2018-03-31T07:48:50.118Z,6.60
2018-03-31T07:51:16.726Z,6.70
2018-03-31T07:53:43.361Z,6.70
2018-03-31T07:56:11.146Z,6.90
2018-03-31T07:58:37.978Z,6.70
2018-03-31T08:01:05.605Z,6.70
2018-03-31T08:03:32.216Z,6.80
2018-03-31T08:05:58.770Z,6.60
2018-03-31T08:08:25.419Z,6.80
2018-03-31T08:10:51.973Z,6.90
2018-03-31T08:13:18.558Z,7.10
2018-03-31T08:15:45.204Z,7.10
2018-03-31T08:18:11.767Z,7.30
2018-03-31T08:20:38.334Z,7.30
2018-03-31T08:23:05.970Z,7.40
2018-03-31T08:25:32.530Z,7.40
2018-03-31T08:27:59.121Z,7.50
2018-03-31T08:30:25.824Z,7.50
2018-03-31T08:32:52.340Z,7.70
2018-03-31T08:35:18.981Z,7.70
2018-03-31T08:37:45.629Z,7.70
2018-03-31T08:40:13.038Z,8.00
2018-03-31T08:42:39.646Z,8.20
2018-03-31T08:45:06.343Z,8.10
2018-03-31T08:50:12.237Z,9.80
2018-03-31T08:52:38.840Z,8.50
2018-03-31T08:55:06.305Z,8.70
2018-03-31T08:57:33.967Z,8.80
2018-03-31T09:00:00.545Z,8.90
2018-03-31T09:02:27.126Z,9.10
2018-03-31T09:04:53.831Z,9.20
2018-03-31T09:07:21.282Z,9.20
2018-03-31T09:09:47.859Z,9.30
2018-03-31T09:12:15.552Z,9.30
2018-03-31T09:14:42.181Z,9.50
2018-03-31T09:17:09.736Z,9.50
2018-03-31T09:22:03.323Z,9.30
2018-03-31T09:24:30.345Z,9.50
2018-03-31T09:26:57.630Z,9.60
2018-03-31T09:29:24.241Z,9.70
2018-03-31T09:31:50.804Z,9.70
2018-03-31T09:34:17.472Z,9.60
2018-03-31T09:36:44.034Z,9.60
2018-03-31T09:39:10.604Z,9.70
2018-03-31T09:41:38.517Z,9.90
2018-03-31T09:44:05.112Z,9.80
2018-03-31T09:46:31.689Z,9.80
2018-03-31T09:48:58.352Z,9.80
2018-03-31T09:53:51.871Z,9.90
2018-03-31T09:56:18.528Z,9.70
2018-03-31T09:58:45.308Z,9.60
2018-03-31T10:01:11.892Z,9.70
2018-03-31T10:03:39.369Z,9.60
2018-03-31T10:06:05.940Z,9.80
2018-03-31T10:10:59.515Z,9.50
2018-03-31T10:13:26.132Z,9.50
2018-03-31T10:18:31.059Z,8.90
2018-03-31T10:20:58.572Z,8.90
2018-03-31T10:23:25.139Z,8.90
2018-03-31T10:25:51.768Z,8.80
2018-03-31T10:28:18.339Z,8.90
2018-03-31T10:30:45.206Z,8.90
2018-03-31T10:33:11.889Z,8.90
2018-03-31T10:35:38.467Z,9.00
2018-03-31T10:38:05.067Z,9.50
2018-03-31T10:40:32.556Z,9.20
2018-03-31T10:43:00.179Z,9.30
2018-03-31T10:45:26.739Z,9.60
2018-03-31T10:47:54.399Z,10.10
2018-03-31T10:50:20.986Z,10.30
2018-03-31T10:52:49.431Z,11.00
2018-03-31T10:55:16.098Z,11.60
2018-03-31T10:57:42.677Z,12.00
2018-03-31T11:00:09.269Z,12.60
2018-03-31T11:02:36.826Z,12.30
2018-03-31T11:05:03.410Z,13.10
2018-03-31T11:07:30.058Z,13.70
2018-03-31T11:09:56.721Z,13.90
2018-03-31T11:12:23.289Z,13.20
2018-03-31T11:14:49.864Z,12.80
2018-03-31T11:17:18.011Z,12.30
2018-03-31T11:19:44.605Z,12.30
2018-03-31T11:22:12.389Z,12.00
2018-03-31T11:24:40.021Z,12.90
2018-03-31T11:27:06.713Z,12.90
2018-03-31T11:29:33.294Z,12.30
2018-03-31T11:34:26.912Z,13.50
2018-03-31T11:36:53.480Z,14.00
2018-03-31T11:39:21.092Z,13.10
2018-03-31T11:44:25.821Z,13.90
2018-03-31T11:46:53.792Z,13.60
2018-03-31T11:49:21.346Z,14.60
2018-03-31T11:51:47.998Z,14.10
2018-03-31T11:54:14.613Z,13.80
2018-03-31T11:56:42.150Z,13.50
2018-03-31T11:59:08.815Z,14.00
2018-03-31T12:01:35.474Z,13.90
2018-03-31T12:04:03.018Z,13.30
2018-03-31T12:06:29.676Z,13.80
2018-03-31T12:08:56.265Z,14.30
2018-03-31T12:11:22.873Z,14.00
2018-03-31T12:13:50.508Z,12.50
2018-03-31T12:16:18.057Z,13.00
2018-03-31T12:18:44.652Z,13.50
2018-03-31T12:21:11.598Z,13.60
2018-03-31T12:23:39.177Z,14.20
2018-03-31T12:26:05.795Z,14.10
2018-03-31T12:28:32.431Z,15.00
2018-03-31T12:30:59.004Z,15.10
2018-03-31T12:33:25.602Z,14.10
2018-03-31T12:38:20.932Z,13.10
2018-03-31T12:40:48.449Z,13.30
2018-03-31T12:43:16.322Z,13.70
2018-03-31T12:45:42.910Z,14.00
2018-03-31T12:48:09.522Z,13.90
2018-03-31T12:50:37.311Z,14.30
2018-03-31T12:53:03.882Z,13.90
2018-03-31T12:55:30.881Z,13.50
2018-03-31T12:57:57.557Z,13.40
2018-03-31T13:03:02.611Z,13.70
2018-03-31T13:05:29.211Z,12.50
2018-03-31T13:07:56.753Z,12.20
2018-03-31T13:10:25.356Z,12.80
2018-03-31T13:12:53.111Z,13.00
2018-03-31T13:15:19.721Z,13.00
2018-03-31T13:20:13.290Z,13.40
2018-03-31T13:22:39.889Z,13.50
2018-03-31T13:25:07.884Z,13.40
2018-03-31T13:27:34.486Z,13.60
2018-03-31T13:30:01.063Z,13.90
2018-03-31T13:32:27.705Z,13.90
2018-03-31T13:34:54.294Z,13.70
2018-03-31T13:37:20.958Z,13.50
2018-03-31T13:39:48.579Z,13.70
2018-03-31T13:42:15.160Z,13.50
2018-03-31T13:44:41.753Z,13.40
2018-03-31T13:47:08.385Z,13.40
2018-03-31T13:49:34.955Z,13.30
2018-03-31T13:52:02.522Z,13.00
2018-03-31T13:54:29.173Z,13.10
2018-03-31T13:59:22.959Z,13.50
2018-03-31T14:01:49.626Z,13.80
2018-03-31T14:04:16.215Z,13.80
2018-03-31T14:06:42.812Z,13.70
2018-03-31T14:11:38.392Z,13.40
2018-03-31T14:14:05.010Z,12.80
2018-03-31T14:19:11.702Z,13.30
2018-03-31T14:21:38.394Z,12.20
2018-03-31T14:24:05.806Z,11.90
2018-03-31T14:26:32.371Z,12.10
2018-03-31T14:28:59.027Z,12.00
2018-03-31T14:31:26.485Z,11.80
2018-03-31T14:33:53.080Z,11.60
2018-03-31T14:38:47.489Z,11.30
2018-03-31T14:41:14.103Z,11.10
2018-03-31T14:43:40.733Z,11.10
2018-03-31T14:46:07.292Z,11.00
2018-03-31T14:51:00.830Z,10.90
2018-03-31T14:53:27.687Z,10.90
2018-03-31T14:55:55.123Z,10.80
2018-03-31T14:58:25.221Z,10.70
2018-03-31T15:00:51.784Z,10.40
2018-03-31T15:03:18.414Z,10.40
2018-03-31T15:05:46.103Z,10.50
2018-03-31T15:08:13.187Z,10.40
2018-03-31T15:10:39.838Z,10.60
2018-03-31T15:13:07.349Z,10.30
2018-03-31T15:15:34.434Z,9.90
2018-03-31T15:18:01.037Z,9.90
2018-03-31T15:20:28.206Z,9.70
2018-03-31T15:22:54.786Z,9.50
2018-03-31T15:25:22.345Z,9.70
2018-03-31T15:30:28.318Z,11.50
2018-03-31T15:32:56.343Z,9.70
2018-03-31T15:35:22.944Z,9.70
2018-03-31T15:37:49.527Z,9.50
2018-03-31T15:40:17.012Z,9.50
2018-03-31T15:42:43.597Z,9.40
2018-03-31T15:45:11.178Z,9.40
2018-03-31T15:47:37.856Z,9.30
2018-03-31T15:50:04.427Z,9.40
2018-03-31T15:52:30.991Z,9.40
2018-03-31T15:54:58.676Z,9.40
2018-03-31T15:57:25.280Z,9.40
2018-03-31T15:59:52.372Z,9.50
2018-03-31T16:02:19.860Z,9.40
2018-03-31T16:04:47.317Z,9.40
2018-03-31T16:07:13.935Z,9.40
2018-03-31T16:12:11.171Z,9.40
2018-03-31T16:14:37.747Z,9.40
2018-03-31T16:17:04.404Z,9.40
2018-03-31T16:19:30.999Z,9.40
2018-03-31T16:21:57.593Z,9.40
2018-03-31T16:24:24.274Z,9.30
2018-03-31T16:26:51.693Z,9.10
2018-03-31T16:29:18.295Z,9.20
2018-03-31T16:31:44.967Z,9.10
2018-03-31T16:34:11.583Z,9.00
2018-03-31T16:36:38.153Z,8.90
2018-03-31T16:41:43.800Z,8.80
2018-03-31T16:44:11.309Z,8.90
2018-03-31T16:49:06.764Z,8.90
2018-03-31T16:51:36.265Z,8.80
2018-03-31T16:54:00.066Z,8.80
2018-03-31T16:56:26.686Z,8.80
2018-03-31T16:58:53.335Z,8.80
2018-03-31T17:01:20.748Z,9.00
2018-03-31T17:03:47.337Z,9.00
2018-03-31T17:06:14.277Z,9.10
2018-03-31T17:08:40.832Z,9.00
2018-03-31T17:11:07.447Z,9.10
2018-03-31T17:13:34.039Z,9.20
2018-03-31T17:16:00.646Z,9.40
2018-03-31T17:18:28.109Z,9.40
2018-03-31T17:20:54.776Z,9.50
2018-03-31T17:23:21.325Z,9.60
2018-03-31T17:25:47.898Z,9.70
2018-03-31T17:28:14.966Z,9.80
2018-03-31T17:30:41.539Z,9.70
2018-03-31T17:33:08.127Z,9.80
2018-03-31T17:35:34.763Z,9.80
2018-03-31T17:38:01.338Z,9.80
2018-03-31T17:40:27.934Z,9.70
2018-03-31T17:42:55.460Z,9.70
2018-03-31T17:45:22.066Z,9.80
2018-03-31T17:47:48.631Z,9.60
2018-03-31T17:50:15.266Z,9.30
2018-03-31T17:52:42.376Z,9.40
2018-03-31T17:55:08.954Z,9.30
2018-03-31T17:57:35.604Z,9.30
2018-03-31T18:00:02.368Z,9.20
2018-03-31T18:02:28.962Z,9.10
2018-03-31T18:07:33.680Z,8.70
2018-03-31T18:10:01.148Z,8.90
2018-03-31T18:12:27.713Z,8.70
2018-03-31T18:14:54.350Z,8.60
2018-03-31T18:17:22.013Z,8.70
2018-03-31T18:19:48.599Z,8.80
2018-03-31T18:22:16.882Z,8.80
2018-03-31T18:24:44.398Z,8.90
2018-03-31T18:29:38.821Z,8.80
2018-03-31T18:32:06.421Z,8.90
2018-03-31T18:34:32.999Z,8.90
2018-03-31T18:36:59.578Z,9.00
2018-03-31T18:39:27.933Z,8.90
2018-03-31T18:41:54.505Z,9.00
2018-03-31T18:44:21.075Z,8.90
2018-03-31T18:46:47.793Z,9.00
2018-03-31T18:49:14.363Z,9.00
2018-03-31T18:51:40.985Z,8.90
2018-03-31T18:54:07.640Z,9.00
2018-03-31T18:56:34.221Z,8.90
2018-03-31T18:59:00.798Z,8.80
2018-03-31T19:01:27.431Z,8.80
2018-03-31T19:03:54.990Z,8.50
2018-03-31T19:06:21.592Z,7.70
2018-03-31T19:08:48.253Z,7.70
2018-03-31T19:11:15.793Z,7.80
2018-03-31T19:13:42.365Z,8.00
2018-03-31T19:16:09.037Z,7.90
2018-03-31T19:18:35.612Z,7.70
2018-03-31T19:21:02.185Z,7.90
2018-03-31T19:23:28.867Z,7.90
2018-03-31T19:25:55.379Z,7.80
2018-03-31T19:31:03.115Z,7.40
2018-03-31T19:33:29.717Z,7.50
2018-03-31T19:35:56.288Z,7.60
2018-03-31T19:38:22.902Z,7.50
2018-03-31T19:40:49.731Z,7.70
2018-03-31T19:43:16.330Z,7.70
2018-03-31T19:45:43.278Z,7.40
2018-03-31T19:48:09.889Z,7.60
2018-03-31T19:53:03.460Z,7.20
2018-03-31T19:55:30.284Z,7.30
2018-03-31T19:57:59.949Z,7.40
2018-03-31T20:00:27.371Z,7.40
2018-03-31T20:02:53.945Z,7.50
2018-03-31T20:05:20.527Z,7.50
2018-03-31T20:07:48.460Z,7.60
2018-03-31T20:10:15.956Z,7.50
2018-03-31T20:12:43.491Z,7.60
2018-03-31T20:15:11.102Z,7.60
2018-03-31T20:17:37.685Z,7.60
2018-03-31T20:20:04.262Z,7.70
2018-03-31T20:22:30.924Z,7.50
2018-03-31T20:24:57.497Z,7.50
2018-03-31T20:27:24.957Z,7.60
2018-03-31T20:29:52.485Z,7.60
2018-03-31T20:32:20.086Z,7.70
2018-03-31T20:34:47.618Z,7.70
2018-03-31T20:37:14.271Z,7.50
2018-03-31T20:39:40.848Z,7.50
2018-03-31T20:42:08.653Z,7.50
2018-03-31T20:44:35.321Z,7.40
2018-03-31T20:47:01.897Z,7.30
2018-03-31T20:49:29.358Z,7.40
2018-03-31T20:54:33.992Z,7.30
2018-03-31T20:57:00.880Z,7.50
2018-03-31T20:59:27.451Z,7.40
2018-03-31T21:01:55.000Z,7.10
2018-03-31T21:04:21.702Z,6.70
2018-03-31T21:06:48.275Z,6.80
2018-03-31T21:09:14.872Z,6.80
2018-03-31T21:11:41.517Z,6.80
2018-03-31T21:14:08.095Z,6.90
2018-03-31T21:16:34.702Z,6.80
2018-03-31T21:19:02.375Z,6.60
2018-03-31T21:23:56.734Z,6.80
2018-03-31T21:26:23.388Z,6.70
2018-03-31T21:28:49.996Z,6.70
2018-03-31T21:31:16.593Z,6.80
2018-03-31T21:36:10.966Z,6.70
2018-03-31T21:38:37.542Z,6.60
2018-03-31T21:41:04.217Z,6.50
2018-03-31T21:43:30.815Z,6.40
2018-03-31T21:45:57.420Z,6.50
2018-03-31T21:48:24.056Z,6.50
2018-03-31T21:50:50.630Z,6.40
2018-03-31T21:53:17.198Z,6.30
2018-03-31T21:55:43.896Z,6.40
2018-03-31T21:58:10.507Z,6.50
2018-03-31T22:00:37.095Z,6.40
2018-03-31T22:03:04.542Z,6.20
2018-03-31T22:05:31.505Z,6.20
2018-03-31T22:07:59.082Z,6.30
2018-03-31T22:10:26.596Z,6.30
2018-03-31T22:12:53.171Z,6.30
2018-03-31T22:15:19.717Z,6.30
2018-03-31T22:17:46.908Z,6.30
2018-03-31T22:20:13.472Z,6.30
2018-03-31T22:25:19.121Z,6.40
2018-03-31T22:27:46.593Z,6.40
2018-03-31T22:30:13.178Z,6.10
2018-03-31T22:32:39.810Z,6.10
2018-03-31T22:35:07.359Z,6.20
2018-03-31T22:40:01.438Z,5.90
2018-03-31T22:42:28.802Z,6.00
2018-03-31T22:47:24.151Z,6.20
2018-03-31T22:49:51.112Z,6.30
2018-03-31T22:52:17.697Z,6.10
2018-03-31T22:54:45.047Z,6.00
2018-03-31T22:57:11.617Z,6.00
2018-03-31T22:59:38.446Z,6.00
2018-03-31T23:02:05.104Z,6.00
2018-03-31T23:04:31.713Z,6.20
2018-03-31T23:06:58.280Z,6.20
2018-03-31T23:09:24.905Z,6.10
2018-03-31T23:11:51.493Z,6.20
2018-03-31T23:14:18.912Z,6.20
2018-03-31T23:16:45.549Z,6.00
2018-03-31T23:19:12.106Z,5.90
2018-03-31T23:21:38.677Z,6.10
2018-03-31T23:24:05.761Z,6.10
2018-03-31T23:26:32.324Z,6.00
2018-03-31T23:28:58.886Z,5.80
2018-03-31T23:31:25.541Z,5.80
2018-03-31T23:33:52.859Z,5.80
2018-03-31T23:36:22.556Z,5.80
2018-03-31T23:38:50.604Z,5.80
2018-03-31T23:41:17.165Z,5.70
2018-03-31T23:43:44.682Z,5.80
2018-03-31T23:46:11.333Z,5.60
2018-03-31T23:51:17.273Z,5.50
2018-03-31T23:53:44.222Z,5.70
2018-03-31T23:56:11.801Z,5.60
2018-03-31T23:58:39.392Z,5.50
